Observation data for Guthrie on 12/10/2018      Previous  Date       Current Mesonet Observations  Soil Data  Daily Summary Page  Observations in Plain Language
KPFS 100600Z 21002KT M01/M05 A3036 RMK A01 T10131051  RH  076%=      5-min Rain = 0
KPFS 100605Z 20002KT M02/M06 A3036 RMK A01 T10201056  RH  077%=      5-min Rain = 0
KPFS 100610Z 22001KT M02/M05 A3036 RMK A01 T10201053  RH  078%=      5-min Rain = 0
KPFS 100615Z 22002KT M02/M05 A3036 RMK A01 T10151049  RH  078%=      5-min Rain = 0
KPFS 100620Z 21003KT M02/M05 A3036 RMK A01 T10201054  RH  077%=      5-min Rain = 0
KPFS 100625Z 22003KT M02/M06 A3035 RMK A01 T10241056  RH  079%=      5-min Rain = 0
KPFS 100630Z 21004KT M03/M06 A3035 RMK A01 T10261056  RH  080%=      5-min Rain = 0
KPFS 100635Z 21004KT M03/M06 A3035 RMK A01 T10281056  RH  081%=      5-min Rain = 0
KPFS 100640Z 21004KT M03/M06 A3035 RMK A01 T10271055  RH  081%=      5-min Rain = 0
KPFS 100645Z 21003KT M03/M05 A3035 RMK A01 T10261054  RH  081%=      5-min Rain = 0
KPFS 100650Z 21003KT M03/M05 A3035 RMK A01 T10261053  RH  081%=      5-min Rain = 0
KPFS 100655Z 22003KT M02/M05 A3035 RMK A01 T10241052  RH  081%=      5-min Rain = 0
KPFS 100700Z 21003KT M02/M05 A3035 RMK A01 T10231051  RH  081%=      5-min Rain = 0
KPFS 100705Z 21003KT M02/M05 A3034 RMK A01 T10221051  RH  081%=      5-min Rain = 0
KPFS 100710Z 21004KT M02/M05 A3034 RMK A01 T10201050  RH  080%=      5-min Rain = 0
KPFS 100715Z 21004KT M02/M05 A3034 RMK A01 T10211051  RH  080%=      5-min Rain = 0
KPFS 100720Z 21003KT M02/M05 A3034 RMK A01 T10201050  RH  080%=      5-min Rain = 0
KPFS 100725Z 23003KT M02/M05 A3034 RMK A01 T10161047  RH  080%=      5-min Rain = 0
KPFS 100730Z 24004KT M02/M05 A3034 RMK A01 T10151047  RH  079%=      5-min Rain = 0
KPFS 100735Z 25004KT M02/M05 A3034 RMK A01 T10151048  RH  078%=      5-min Rain = 0
KPFS 100740Z 26004KT M01/M04 A3034 RMK A01 T10101044  RH  078%=      5-min Rain = 0
KPFS 100745Z 26004KT M00/M04 A3034 RMK A01 T10021041  RH  075%=      5-min Rain = 0
KPFS 100750Z 25004KT 00/M04 A3034 RMK A01 T00011042  RH  073%=      5-min Rain = 0
KPFS 100755Z 21004KT M00/M05 A3034 RMK A01 T10021045  RH  073%=      5-min Rain = 0
KPFS 100800Z 21005KT M01/M05 A3034 RMK A01 T10061047  RH  074%=      5-min Rain = 0
KPFS 100805Z 22004KT M01/M05 A3034 RMK A01 T10091047  RH  076%=      5-min Rain = 0
KPFS 100810Z 23003KT M01/M04 A3034 RMK A01 T10061044  RH  076%=      5-min Rain = 0
KPFS 100815Z 25002KT M00/M04 A3034 RMK A01 T10021043  RH  074%=      5-min Rain = 0
KPFS 100820Z 24002KT M00/M04 A3034 RMK A01 T10011043  RH  074%=      5-min Rain = 0
KPFS 100825Z 22002KT M00/M04 A3034 RMK A01 T10011043  RH  073%=      5-min Rain = 0
KPFS 100830Z 22003KT M00/M05 A3033 RMK A01 T10021045  RH  073%=      5-min Rain = 0
KPFS 100835Z 22003KT M01/M05 A3033 RMK A01 T10061047  RH  074%=      5-min Rain = 0
KPFS 100840Z 23003KT M01/M05 A3033 RMK A01 T10101048  RH  075%=      5-min Rain = 0
KPFS 100845Z 24003KT M01/M05 A3033 RMK A01 T10061045  RH  075%=      5-min Rain = 0
KPFS 100850Z 23003KT M00/M04 A3033 RMK A01 T10031043  RH  075%=      5-min Rain = 0
KPFS 100855Z 20003KT M01/M05 A3033 RMK A01 T10061047  RH  074%=      5-min Rain = 0
KPFS 100900Z 19003KT M02/M05 A3033 RMK A01 T10161053  RH  076%=      5-min Rain = 0
KPFS 100905Z 20003KT M02/M05 A3033 RMK A01 T10211054  RH  078%=      5-min Rain = 0
KPFS 100910Z 21003KT M02/M05 A3033 RMK A01 T10201051  RH  080%=      5-min Rain = 0
KPFS 100915Z 20004KT M02/M05 A3033 RMK A01 T10201051  RH  079%=      5-min Rain = 0
KPFS 100920Z 20004KT M02/M05 A3033 RMK A01 T10221052  RH  080%=      5-min Rain = 0
KPFS 100925Z 21003KT M02/M05 A3033 RMK A01 T10191050  RH  080%=      5-min Rain = 0
KPFS 100930Z 20005KT M02/M05 A3032 RMK A01 T10211052  RH  080%=      5-min Rain = 0
KPFS 100935Z 20006KT M02/M05 A3032 RMK A01 T10231052  RH  081%=      5-min Rain = 0
KPFS 100940Z 21006KT M02/M05 A3032 RMK A01 T10231051  RH  081%=      5-min Rain = 0
KPFS 100945Z 21006KT M02/M05 A3031 RMK A01 T10221050  RH  081%=      5-min Rain = 0
KPFS 100950Z 21005KT M02/M05 A3031 RMK A01 T10211050  RH  081%=      5-min Rain = 0
KPFS 100955Z 22005KT M02/M05 A3031 RMK A01 T10211050  RH  081%=      5-min Rain = 0
KPFS 101000Z 22004KT M02/M05 A3031 RMK A01 T10201049  RH  081%=      5-min Rain = 0
KPFS 101005Z 23004KT M02/M05 A3032 RMK A01 T10201050  RH  080%=      5-min Rain = 0
KPFS 101010Z 24004KT M02/M05 A3032 RMK A01 T10211050  RH  080%=      5-min Rain = 0
KPFS 101015Z 25004KT M02/M05 A3032 RMK A01 T10201050  RH  081%=      5-min Rain = 0
KPFS 101020Z 26004KT M02/M05 A3032 RMK A01 T10171047  RH  080%=      5-min Rain = 0
KPFS 101025Z 26003KT M01/M04 A3032 RMK A01 T10111044  RH  079%=      5-min Rain = 0
KPFS 101030Z 23004KT M01/M05 A3032 RMK A01 T10121046  RH  078%=      5-min Rain = 0
KPFS 101035Z 22004KT M02/M05 A3032 RMK A01 T10151048  RH  078%=      5-min Rain = 0
KPFS 101040Z 22003KT M01/M05 A3032 RMK A01 T10141047  RH  079%=      5-min Rain = 0
KPFS 101045Z 23004KT M01/M05 A3032 RMK A01 T10131047  RH  078%=      5-min Rain = 0
KPFS 101050Z 22005KT M02/M05 A3032 RMK A01 T10171050  RH  079%=      5-min Rain = 0
KPFS 101055Z 22005KT M02/M05 A3032 RMK A01 T10191049  RH  080%=      5-min Rain = 0
KPFS 101100Z 21004KT M02/M05 A3032 RMK A01 T10191049  RH  081%=      5-min Rain = 0
KPFS 101105Z 21004KT M02/M05 A3032 RMK A01 T10191049  RH  081%=      5-min Rain = 0
KPFS 101110Z 21004KT M02/M05 A3032 RMK A01 T10221050  RH  081%=      5-min Rain = 0
KPFS 101115Z 22003KT M02/M05 A3032 RMK A01 T10231050  RH  082%=      5-min Rain = 0
KPFS 101120Z 21004KT M02/M05 A3032 RMK A01 T10231050  RH  082%=      5-min Rain = 0
KPFS 101125Z 21003KT M02/M05 A3032 RMK A01 T10231050  RH  083%=      5-min Rain = 0
KPFS 101130Z 23003KT M02/M05 A3032 RMK A01 T10221048  RH  083%=      5-min Rain = 0
KPFS 101135Z 23003KT M02/M05 A3032 RMK A01 T10201046  RH  082%=      5-min Rain = 0
KPFS 101140Z 26003KT M02/M04 A3032 RMK A01 T10161044  RH  082%=      5-min Rain = 0
KPFS 101145Z 26003KT M01/M04 A3032 RMK A01 T10111041  RH  080%=      5-min Rain = 0
KPFS 101150Z 24003KT M01/M04 A3032 RMK A01 T10101044  RH  079%=      5-min Rain = 0
KPFS 101155Z 21003KT M02/M05 A3032 RMK A01 T10171049  RH  079%=      5-min Rain = 0
KPFS 101200Z 21003KT M02/M05 A3032 RMK A01 T10181048  RH  080%=      5-min Rain = 0
KPFS 101205Z 21004KT M02/M05 A3032 RMK A01 T10171047  RH  080%=      5-min Rain = 0
KPFS 101210Z 20004KT M02/M05 A3032 RMK A01 T10171047  RH  080%=      5-min Rain = 0
KPFS 101215Z 21004KT M02/M05 A3032 RMK A01 T10181047  RH  081%=      5-min Rain = 0
KPFS 101220Z 21004KT M02/M05 A3032 RMK A01 T10161045  RH  080%=      5-min Rain = 0
KPFS 101225Z 21004KT M02/M05 A3033 RMK A01 T10151046  RH  080%=      5-min Rain = 0
KPFS 101230Z 21004KT M02/M05 A3033 RMK A01 T10161047  RH  080%=      5-min Rain = 0
KPFS 101235Z 22003KT M02/M05 A3033 RMK A01 T10151046  RH  079%=      5-min Rain = 0
KPFS 101240Z 23003KT M01/M05 A3033 RMK A01 T10131045  RH  079%=      5-min Rain = 0
KPFS 101245Z 23004KT M01/M05 A3033 RMK A01 T10121046  RH  078%=      5-min Rain = 0
KPFS 101250Z 23004KT M01/M05 A3033 RMK A01 T10111045  RH  078%=      5-min Rain = 0
KPFS 101255Z 22004KT M01/M05 A3033 RMK A01 T10101045  RH  077%=      5-min Rain = 0
KPFS 101300Z 21004KT M01/M05 A3033 RMK A01 T10091045  RH  077%=      5-min Rain = 0
KPFS 101305Z 22003KT M01/M05 A3033 RMK A01 T10111047  RH  077%=      5-min Rain = 0
KPFS 101310Z 23003KT M01/M04 A3033 RMK A01 T10061043  RH  077%=      5-min Rain = 0
KPFS 101315Z 24002KT M00/M04 A3033 RMK A01 T10021042  RH  075%=      5-min Rain = 0
KPFS 101320Z 21003KT M00/M04 A3033 RMK A01 T10031044  RH  074%=      5-min Rain = 0
KPFS 101325Z 21004KT M01/M05 A3033 RMK A01 T10071047  RH  075%=      5-min Rain = 0
KPFS 101330Z 21004KT M01/M05 A3033 RMK A01 T10071046  RH  075%=      5-min Rain = 0
KPFS 101335Z 22003KT M00/M04 A3033 RMK A01 T10031044  RH  074%=      5-min Rain = 0
KPFS 101340Z 22003KT 00/04 A3033 RMK A01 T00000-44  RH  073%=      5-min Rain = 0
KPFS 101345Z 23002KT M00/M05 A3034 RMK A01 T10011045  RH  073%=      5-min Rain = 0
KPFS 101350Z 23002KT 00/04 A3034 RMK A01 T00000-44  RH  072%=      5-min Rain = 0
KPFS 101355Z 24002KT 00/M04 A3034 RMK A01 T00021044  RH  072%=      5-min Rain = 0
KPFS 101400Z 24002KT 00/M04 A3034 RMK A01 T00031044  RH  071%=      5-min Rain = 0
KPFS 101405Z 26002KT 01/M04 A3034 RMK A01 T00051043  RH  070%=      5-min Rain = 0
KPFS 101410Z 27002KT 01/M04 A3035 RMK A01 T00101041  RH  069%=      5-min Rain = 0
KPFS 101415Z 28002KT 02/M04 A3035 RMK A01 T00161040  RH  067%=      5-min Rain = 0
KPFS 101420Z 28003KT 02/M04 A3035 RMK A01 T00181040  RH  066%=      5-min Rain = 0
KPFS 101425Z 28003KT 02/M04 A3035 RMK A01 T00201040  RH  065%=      5-min Rain = 0
KPFS 101430Z 28004KT 02/M04 A3035 RMK A01 T00221039  RH  064%=      5-min Rain = 0
KPFS 101435Z 29003KT 03/M04 A3035 RMK A01 T00251039  RH  063%=      5-min Rain = 0
KPFS 101440Z 29003KT 03/M04 A3035 RMK A01 T00271038  RH  063%=      5-min Rain = 0
KPFS 101445Z 29002KT 03/M04 A3035 RMK A01 T00301038  RH  061%=      5-min Rain = 0
KPFS 101450Z 24003KT 03/M04 A3035 RMK A01 T00321035  RH  062%=      5-min Rain = 0
KPFS 101455Z 20003KT 03/M03 A3036 RMK A01 T00281033  RH  065%=      5-min Rain = 0
KPFS 101500Z 20003KT 03/M03 A3036 RMK A01 T00291030  RH  065%=      5-min Rain = 0
KPFS 101505Z 24002KT 04/M03 A3036 RMK A01 T00361028  RH  063%=      5-min Rain = 0
KPFS 101510Z 24002KT 04/M03 A3036 RMK A01 T00421025  RH  062%=      5-min Rain = 0
KPFS 101515Z 25002KT 05/M02 A3036 RMK A01 T00471023  RH  061%=      5-min Rain = 0
KPFS 101520Z 23003KT 05/M02 A3037 RMK A01 T00501022  RH  060%=      5-min Rain = 0
KPFS 101525Z 22004KT 05/M02 A3037 RMK A01 T00501018  RH  062%=      5-min Rain = 0
KPFS 101530Z 19003KT 05/M01 A3037 RMK A01 T00511014  RH  063%=      5-min Rain = 0
KPFS 101535Z 21004KT 05/M01 A3037 RMK A01 T00531014  RH  063%=      5-min Rain = 0
KPFS 101540Z 22004KT 06/M01 A3037 RMK A01 T00551012  RH  063%=      5-min Rain = 0
KPFS 101545Z 24005KT 06/M01 A3037 RMK A01 T00591013  RH  060%=      5-min Rain = 0
KPFS 101550Z 24004KT 06/M01 A3037 RMK A01 T00621014  RH  059%=      5-min Rain = 0
KPFS 101555Z 25004KT 07/M01 A3037 RMK A01 T00651013  RH  058%=      5-min Rain = 0
KPFS 101600Z 26005KT 07/M01 A3037 RMK A01 T00671013  RH  057%=      5-min Rain = 0
KPFS 101605Z 25005KT 07/M01 A3037 RMK A01 T00691012  RH  057%=      5-min Rain = 0
KPFS 101610Z 26005KT 07/M01 A3037 RMK A01 T00711011  RH  056%=      5-min Rain = 0
KPFS 101615Z 25004KT 07/M01 A3037 RMK A01 T00741010  RH  056%=      5-min Rain = 0
KPFS 101620Z 24004KT 07/M01 A3037 RMK A01 T00741012  RH  055%=      5-min Rain = 0
KPFS 101625Z 24004KT 08/M01 A3037 RMK A01 T00771010  RH  055%=      5-min Rain = 0
KPFS 101630Z 25004KT 08/M01 A3037 RMK A01 T00801009  RH  054%=      5-min Rain = 0
KPFS 101635Z 25004KT 08/M01 A3037 RMK A01 T00801010  RH  053%=      5-min Rain = 0
KPFS 101640Z 25005KT 08/M01 A3037 RMK A01 T00811009  RH  054%=      5-min Rain = 0
KPFS 101645Z 25004KT 08/M01 A3037 RMK A01 T00821008  RH  053%=      5-min Rain = 0
KPFS 101650Z 25004KT 08/M01 A3037 RMK A01 T00831009  RH  053%=      5-min Rain = 0
KPFS 101655Z 25004KT 09/M01 A3037 RMK A01 T00861008  RH  052%=      5-min Rain = 0
KPFS 101700Z 24004KT 09/M01 A3037 RMK A01 T00881008  RH  052%=      5-min Rain = 0
KPFS 101705Z 24003KT 09/M01 A3036 RMK A01 T00911006  RH  051%=      5-min Rain = 0
KPFS 101710Z 24002KT 09/M01 A3036 RMK A01 T00931007  RH  050%=      5-min Rain = 0
KPFS 101715Z 32002KT 10/M01 A3037 RMK A01 T00981006  RH  049%=      5-min Rain = 0
KPFS 101720Z 02006KT 10/M01 A3037 RMK A01 T00951007  RH  050%=      5-min Rain = 0
KPFS 101725Z 02004KT 09/M00 A3037 RMK A01 T00891004  RH  052%=      5-min Rain = 0
KPFS 101730Z 05007KT 08/M01 A3037 RMK A01 T00831005  RH  054%=      5-min Rain = 0
KPFS 101735Z 04007KT 08/M01 A3037 RMK A01 T00821005  RH  055%=      5-min Rain = 0
KPFS 101740Z 04006KT 08/M01 A3036 RMK A01 T00811007  RH  054%=      5-min Rain = 0
KPFS 101745Z 04007KT 08/M01 A3036 RMK A01 T00821006  RH  054%=      5-min Rain = 0
KPFS 101750Z 04008KT 08/M00 A3036 RMK A01 T00811004  RH  055%=      5-min Rain = 0
KPFS 101755Z 03007KT 08/M00 A3035 RMK A01 T00811004  RH  056%=      5-min Rain = 0
KPFS 101800Z 04008KT 08/M00 A3035 RMK A01 T00801002  RH  057%=      5-min Rain = 0
KPFS 101805Z 05008KT 08/00 A3035 RMK A01 T00780002  RH  059%=      5-min Rain = 0
KPFS 101810Z 04007KT 08/00 A3035 RMK A01 T00780002  RH  059%=      5-min Rain = 0
KPFS 101815Z 05007KT 08/M01 A3035 RMK A01 T00771010  RH  055%=      5-min Rain = 0
KPFS 101820Z 06006KT 08/M01 A3035 RMK A01 T00781007  RH  055%=      5-min Rain = 0
KPFS 101825Z 06005KT 08/M01 A3035 RMK A01 T00791007  RH  055%=      5-min Rain = 0
KPFS 101830Z 05004KT 08/M01 A3034 RMK A01 T00831005  RH  054%=      5-min Rain = 0
KPFS 101835Z 03005KT 08/M01 A3034 RMK A01 T00831009  RH  053%=      5-min Rain = 0
KPFS 101840Z 02004KT 08/M01 A3033 RMK A01 T00841010  RH  052%=      5-min Rain = 0
KPFS 101845Z 35004KT 09/M01 A3033 RMK A01 T00861007  RH  052%=      5-min Rain = 0
KPFS 101850Z 36004KT 09/M01 A3033 RMK A01 T00891007  RH  052%=      5-min Rain = 0
KPFS 101855Z 35004KT 09/M01 A3033 RMK A01 T00861010  RH  051%=      5-min Rain = 0
KPFS 101900Z 00004KT 09/M01 A3032 RMK A01 T00881010  RH  051%=      5-min Rain = 0
KPFS 101905Z 02004KT 09/M01 A3032 RMK A01 T00901013  RH  049%=      5-min Rain = 0
KPFS 101910Z 01004KT 09/M01 A3032 RMK A01 T00931011  RH  048%=      5-min Rain = 0
KPFS 101915Z 04004KT 10/M02 A3031 RMK A01 T00981015  RH  046%=      5-min Rain = 0
KPFS 101920Z 01004KT 10/M02 A3031 RMK A01 T00971019  RH  044%=      5-min Rain = 0
KPFS 101925Z 01004KT 10/M02 A3031 RMK A01 T00991018  RH  044%=      5-min Rain = 0
KPFS 101930Z 34003KT 10/M02 A3031 RMK A01 T00981023  RH  043%=      5-min Rain = 0
KPFS 101935Z 33002KT 10/M02 A3031 RMK A01 T00991024  RH  042%=      5-min Rain = 0
KPFS 101940Z 34003KT 10/M02 A3031 RMK A01 T01031021  RH  042%=      5-min Rain = 0
KPFS 101945Z 34003KT 10/M02 A3031 RMK A01 T01021024  RH  042%=      5-min Rain = 0
KPFS 101950Z 33003KT 10/M02 A3031 RMK A01 T01041022  RH  042%=      5-min Rain = 0
KPFS 101955Z 34002KT 11/M02 A3031 RMK A01 T01051023  RH  041%=      5-min Rain = 0
KPFS 102000Z 33002KT 11/M02 A303 RMK A01 T01051021  RH  042%=      5-min Rain = 0
KPFS 102005Z 33002KT 11/M02 A303 RMK A01 T01061020  RH  042%=      5-min Rain = 0
KPFS 102010Z 33002KT 11/M02 A303 RMK A01 T01061021  RH  042%=      5-min Rain = 0
KPFS 102015Z 31000KT 11/M02 A303 RMK A01 T01081020  RH  041%=      5-min Rain = 0
KPFS 102020Z 00002KT 11/M02 A303 RMK A01 T01121016  RH  041%=      5-min Rain = 0
KPFS 102025Z 35001KT 11/M01 A303 RMK A01 T01121013  RH  042%=      5-min Rain = 0
KPFS 102030Z 27002KT 11/M01 A303 RMK A01 T01141013  RH  042%=      5-min Rain = 0
KPFS 102035Z 28001KT 12/M01 A303 RMK A01 T01161011  RH  042%=      5-min Rain = 0
KPFS 102040Z 04001KT 12/M01 A303 RMK A01 T01171013  RH  041%=      5-min Rain = 0
KPFS 102045Z 28001KT 12/M01 A303 RMK A01 T01161014  RH  041%=      5-min Rain = 0
KPFS 102050Z 26001KT 12/M01 A303 RMK A01 T01191013  RH  040%=      5-min Rain = 0
KPFS 102055Z 31001KT 12/M01 A303 RMK A01 T01171014  RH  041%=      5-min Rain = 0
KPFS 102100Z 14000KT 12/M01 A3029 RMK A01 T01181012  RH  041%=      5-min Rain = 0
KPFS 102105Z 21002KT 12/M01 A303 RMK A01 T01231008  RH  041%=      5-min Rain = 0
KPFS 102110Z 22003KT 12/M01 A3029 RMK A01 T01181008  RH  042%=      5-min Rain = 0
KPFS 102115Z 21003KT 12/M01 A3029 RMK A01 T01201006  RH  042%=      5-min Rain = 0
KPFS 102120Z 18002KT 12/M01 A3029 RMK A01 T01201009  RH  041%=      5-min Rain = 0
KPFS 102125Z 13003KT 12/M01 A3029 RMK A01 T01181009  RH  042%=      5-min Rain = 0
KPFS 102130Z 15003KT 12/M01 A3029 RMK A01 T01171008  RH  042%=      5-min Rain = 0
KPFS 102135Z 18002KT 12/M01 A3029 RMK A01 T01191007  RH  042%=      5-min Rain = 0
KPFS 102140Z 17002KT 12/M01 A3029 RMK A01 T01231008  RH  041%=      5-min Rain = 0
KPFS 102145Z 14006KT 12/M00 A3029 RMK A01 T01171001  RH  045%=      5-min Rain = 0
KPFS 102150Z 15006KT 11/M00 A3029 RMK A01 T01101002  RH  046%=      5-min Rain = 0
KPFS 102155Z 15005KT 11/M00 A3029 RMK A01 T01101003  RH  046%=      5-min Rain = 0
KPFS 102200Z 14005KT 11/M00 A3029 RMK A01 T01101004  RH  046%=      5-min Rain = 0
KPFS 102205Z 13006KT 11/M00 A3029 RMK A01 T01081002  RH  047%=      5-min Rain = 0
KPFS 102210Z 15005KT 11/M00 A3029 RMK A01 T01081002  RH  047%=      5-min Rain = 0
KPFS 102215Z 15005KT 11/M00 A3029 RMK A01 T01081002  RH  047%=      5-min Rain = 0
KPFS 102220Z 14006KT 11/M01 A3029 RMK A01 T01061005  RH  047%=      5-min Rain = 0
KPFS 102225Z 13007KT 10/M00 A3029 RMK A01 T01041004  RH  048%=      5-min Rain = 0
KPFS 102230Z 13006KT 10/M00 A3029 RMK A01 T01031002  RH  049%=      5-min Rain = 0
KPFS 102235Z 14006KT 10/00 A3029 RMK A01 T010200-0  RH  050%=      5-min Rain = 0
KPFS 102240Z 14006KT 10/M00 A3029 RMK A01 T01001004  RH  049%=      5-min Rain = 0
KPFS 102245Z 14006KT 10/M01 A3029 RMK A01 T00991005  RH  049%=      5-min Rain = 0
KPFS 102250Z 13005KT 10/M00 A3029 RMK A01 T00981003  RH  050%=      5-min Rain = 0
KPFS 102255Z 12006KT 10/M00 A3029 RMK A01 T00961002  RH  051%=      5-min Rain = 0
KPFS 102300Z 12006KT 09/M00 A3029 RMK A01 T00911001  RH  053%=      5-min Rain = 0
KPFS 102305Z 13006KT 09/00 A3029 RMK A01 T008600-0  RH  055%=      5-min Rain = 0
KPFS 102310Z 13006KT 08/00 A3029 RMK A01 T00820000  RH  057%=      5-min Rain = 0
KPFS 102315Z 13006KT 08/00 A3029 RMK A01 T00790001  RH  058%=      5-min Rain = 0
KPFS 102320Z 14007KT 08/00 A3029 RMK A01 T00760001  RH  060%=      5-min Rain = 0
KPFS 102325Z 14007KT 07/00 A3029 RMK A01 T00740001  RH  060%=      5-min Rain = 0
KPFS 102330Z 14007KT 07/00 A3029 RMK A01 T00720000  RH  061%=      5-min Rain = 0
KPFS 102335Z 14007KT 07/M00 A3029 RMK A01 T00711002  RH  060%=      5-min Rain = 0
KPFS 102340Z 14006KT 07/M00 A303 RMK A01 T00711004  RH  060%=      5-min Rain = 0
KPFS 102345Z 14006KT 07/M01 A303 RMK A01 T00691005  RH  060%=      5-min Rain = 0
KPFS 102350Z 15006KT 07/M01 A303 RMK A01 T00671007  RH  060%=      5-min Rain = 0
KPFS 102355Z 14006KT 07/M01 A303 RMK A01 T00651007  RH  061%=      5-min Rain = 0
KPFS 110000Z 14006KT 07/M01 A303 RMK A01 T00661008  RH  060%=      5-min Rain = 0
KPFS 110005Z 15006KT 06/M01 A303 RMK A01 T00641009  RH  060%=      5-min Rain = 0
KPFS 110010Z 15006KT 07/M01 A303 RMK A01 T00651009  RH  060%=      5-min Rain = 0
KPFS 110015Z 16006KT 07/M01 A303 RMK A01 T00651011  RH  059%=      5-min Rain = 0
KPFS 110020Z 15006KT 06/M01 A303 RMK A01 T00641010  RH  060%=      5-min Rain = 0
KPFS 110025Z 15006KT 06/M01 A303 RMK A01 T00641011  RH  059%=      5-min Rain = 0
KPFS 110030Z 15006KT 06/M01 A303 RMK A01 T00621011  RH  060%=      5-min Rain = 0
KPFS 110035Z 15005KT 06/M01 A303 RMK A01 T00591012  RH  061%=      5-min Rain = 0
KPFS 110040Z 15005KT 06/M01 A303 RMK A01 T00591012  RH  061%=      5-min Rain = 0
KPFS 110045Z 15006KT 06/M01 A303 RMK A01 T00591013  RH  060%=      5-min Rain = 0
KPFS 110050Z 15006KT 06/M01 A303 RMK A01 T00581013  RH  061%=      5-min Rain = 0
KPFS 110055Z 16006KT 06/M01 A303 RMK A01 T00581013  RH  061%=      5-min Rain = 0
KPFS 110100Z 15006KT 05/M01 A303 RMK A01 T00541014  RH  062%=      5-min Rain = 0
KPFS 110105Z 15006KT 05/M01 A303 RMK A01 T00511013  RH  063%=      5-min Rain = 0
KPFS 110110Z 14007KT 05/M01 A303 RMK A01 T00491013  RH  064%=      5-min Rain = 0
KPFS 110115Z 14007KT 05/M01 A303 RMK A01 T00481012  RH  066%=      5-min Rain = 0
KPFS 110120Z 14007KT 05/M01 A3029 RMK A01 T00491012  RH  065%=      5-min Rain = 0
KPFS 110125Z 14008KT 05/M01 A303 RMK A01 T00501012  RH  065%=      5-min Rain = 0
KPFS 110130Z 14007KT 05/M01 A3029 RMK A01 T00491013  RH  065%=      5-min Rain = 0
KPFS 110135Z 15006KT 05/M01 A3029 RMK A01 T00481013  RH  065%=      5-min Rain = 0
KPFS 110140Z 15006KT 05/M01 A3029 RMK A01 T00461013  RH  066%=      5-min Rain = 0
KPFS 110145Z 16007KT 05/M01 A3029 RMK A01 T00451013  RH  067%=      5-min Rain = 0
KPFS 110150Z 15007KT 04/M01 A3029 RMK A01 T00441013  RH  067%=      5-min Rain = 0
KPFS 110155Z 15007KT 04/M01 A3029 RMK A01 T00431012  RH  068%=      5-min Rain = 0
KPFS 110200Z 16007KT 04/M01 A3029 RMK A01 T00431012  RH  068%=      5-min Rain = 0
KPFS 110205Z 16006KT 04/M01 A3029 RMK A01 T00411013  RH  068%=      5-min Rain = 0
KPFS 110210Z 16006KT 04/M01 A3029 RMK A01 T00381014  RH  070%=      5-min Rain = 0
KPFS 110215Z 16007KT 04/M01 A3029 RMK A01 T00361014  RH  071%=      5-min Rain = 0
KPFS 110220Z 16007KT 04/M01 A3029 RMK A01 T00361013  RH  071%=      5-min Rain = 0
KPFS 110225Z 16006KT 04/M01 A3029 RMK A01 T00371013  RH  070%=      5-min Rain = 0
KPFS 110230Z 16007KT 03/M02 A3029 RMK A01 T00341015  RH  071%=      5-min Rain = 0
KPFS 110235Z 16007KT 03/M01 A3029 RMK A01 T00321014  RH  072%=      5-min Rain = 0
KPFS 110240Z 15008KT 03/M01 A3029 RMK A01 T00321014  RH  072%=      5-min Rain = 0
KPFS 110245Z 16009KT 03/M01 A3029 RMK A01 T00331014  RH  072%=      5-min Rain = 0
KPFS 110250Z 16008KT 04/M01 A303 RMK A01 T00361014  RH  071%=      5-min Rain = 0
KPFS 110255Z 16008KT 04/M02 A303 RMK A01 T00351015  RH  071%=      5-min Rain = 0
KPFS 110300Z 17007KT 03/M02 A303 RMK A01 T00331015  RH  072%=      5-min Rain = 0
KPFS 110305Z 17006KT 03/M02 A303 RMK A01 T00331015  RH  072%=      5-min Rain = 0
KPFS 110310Z 18006KT 03/M02 A303 RMK A01 T00311015  RH  072%=      5-min Rain = 0
KPFS 110315Z 18006KT 03/M02 A303 RMK A01 T00301015  RH  073%=      5-min Rain = 0
KPFS 110320Z 17007KT 03/M02 A3029 RMK A01 T00291015  RH  074%=      5-min Rain = 0
KPFS 110325Z 18007KT 03/M01 A3029 RMK A01 T00301014  RH  074%=      5-min Rain = 0
KPFS 110330Z 17008KT 03/M01 A3029 RMK A01 T00301013  RH  074%=      5-min Rain = 0
KPFS 110335Z 18008KT 03/M01 A3029 RMK A01 T00311012  RH  074%=      5-min Rain = 0
KPFS 110340Z 18007KT 03/M01 A3029 RMK A01 T00331011  RH  074%=      5-min Rain = 0
KPFS 110345Z 17006KT 03/M01 A3029 RMK A01 T00311012  RH  074%=      5-min Rain = 0
KPFS 110350Z 18006KT 03/M01 A3029 RMK A01 T00341010  RH  074%=      5-min Rain = 0
KPFS 110355Z 17006KT 03/M01 A3029 RMK A01 T00321011  RH  074%=      5-min Rain = 0
KPFS 110400Z 17006KT 03/M01 A3029 RMK A01 T00301011  RH  075%=      5-min Rain = 0
KPFS 110405Z 17006KT 03/M01 A3029 RMK A01 T00311009  RH  076%=      5-min Rain = 0
KPFS 110410Z 17008KT 04/M01 A3029 RMK A01 T00351008  RH  075%=      5-min Rain = 0
KPFS 110415Z 17007KT 04/M01 A3029 RMK A01 T00371007  RH  074%=      5-min Rain = 0
KPFS 110420Z 17005KT 04/M01 A3029 RMK A01 T00351008  RH  074%=      5-min Rain = 0
KPFS 110425Z 18005KT 03/M01 A3029 RMK A01 T00311010  RH  076%=      5-min Rain = 0
KPFS 110430Z 18005KT 03/M01 A3029 RMK A01 T00291009  RH  077%=      5-min Rain = 0
KPFS 110435Z 17005KT 03/M01 A3029 RMK A01 T00261010  RH  078%=      5-min Rain = 0
KPFS 110440Z 18005KT 03/M01 A3029 RMK A01 T00261008  RH  079%=      5-min Rain = 0
KPFS 110445Z 19004KT 03/M01 A3029 RMK A01 T00271008  RH  079%=      5-min Rain = 0
KPFS 110450Z 20003KT 03/M01 A3029 RMK A01 T00251009  RH  079%=      5-min Rain = 0
KPFS 110455Z 20004KT 03/M01 A3029 RMK A01 T00251009  RH  079%=      5-min Rain = 0
KPFS 110500Z 20004KT 03/M01 A3029 RMK A01 T00251009  RH  079%=      5-min Rain = 0
KPFS 110505Z 20004KT 03/M01 A3029 RMK A01 T00261009  RH  078%=      5-min Rain = 0
KPFS 110510Z 20005KT 03/M01 A3029 RMK A01 T00291008  RH  078%=      5-min Rain = 0
KPFS 110515Z 21006KT 03/M01 A3029 RMK A01 T00301009  RH  077%=      5-min Rain = 0
KPFS 110520Z 21005KT 03/M01 A3029 RMK A01 T00281010  RH  077%=      5-min Rain = 0
KPFS 110525Z 20005KT 03/M01 A3029 RMK A01 T00271011  RH  077%=      5-min Rain = 0
KPFS 110530Z 20006KT 03/M01 A3029 RMK A01 T00261011  RH  077%=      5-min Rain = 0
KPFS 110535Z 20005KT 02/M01 A3029 RMK A01 T00241012  RH  078%=      5-min Rain = 0
KPFS 110540Z 20006KT 03/M01 A3029 RMK A01 T00251010  RH  079%=      5-min Rain = 0
KPFS 110545Z 21006KT 02/M01 A3029 RMK A01 T00241010  RH  079%=      5-min Rain = 0
KPFS 110550Z 21006KT 02/M01 A3029 RMK A01 T00221011  RH  080%=      5-min Rain = 0
KPFS 110555Z 21006KT 02/M01 A3029 RMK A01 T00221011  RH  080%=      5-min Rain = 0

Page generated in 0.0094 seconds.